Portada
METAR-TAF:

METAR-TAF

Aeroports :

Los Mochis, Mèxic

latitud: 25-41N, longitud: 109-05W, altitud: 4 m

Observació

L'informe es va fer fa 1 hora i 24 minuts, a les 15:40 UTC
Vent 6 kt del Oest/Sud-Oest
Temperatura 30°C
Humitat 18%
Pressió 1012 hPa
Visibilitat: 16.1 km
Núvols disperses a una alçada de 22000 ft

METAR: MMLM 251540Z 25006KT 10SM SCT220 30/03 A2987 RMK 8/001

Hora: 11:04 (17:04 UTC)

Pronòstic

L'informe es va fer fa 12 hores i 15 minuts, a les 04:49 UTC
Pronòstic vàlid del 25 a les 06 UTC al 26 a les 06 UTC
Vent 5 kt del Oest/Nord-Oest
Visibilitat: 10 km
Cel clar
A partir de les 25 a les 1800 UTC
Vent 15 kt del Oest/Sud-Oest
Visibilitat: 10 km
Núvols disperses a una alçada de 20000 ft
Evolucionant progressivament
l' 26 a les 02 UTC al 26 a les 03 UTC
Vent 5 kt del Oest/Nord-Oest

TAF: MMLM 250449Z 2506/2606 30005KT P6SM SKC FM251800 24015KT P6SM SCT200 BECMG 2602/2603 30005KT

Observacions i pronòstics meteorològics de més de 4000 aeroports (METAR i TAF).

Les estacions disponibles són els punts grocs i vermells al mapa.

Posi el ratolí al punt desitjat per veure el nom de l'estació.

Feu clic per veure les observacions i els pronòstics meteorològics.

Per canviar el mapa: feu clic els botons verds amb una creu de color negre per apropar; al botó verd amb un guió per allunyar la imatge; o en les fletxes verdes per a mapes adjacents.


METAR-TAF: